Metar Report
Metar
METAR KTYQ 251556Z AUTO 33010KT 3SM BR OVC004 09/09 A3003 A02 5298
METAR KTYQ 251456Z AUTO 33008KT 2 1/2SM BR OVC004 09/09 A3003 A02 5297
METAR KTYQ 251356Z AUTO 34008KT 2SM BR OVC002 09/09 A3002 A02 5296
METAR KTYQ 251256Z AUTO 34014KT 1/2SM FG OVC002 08/08 A3002 A02 5295
METAR KTYQ 251156Z AUTO 33006KT 1 3/4SM BR OVC004 09/09 A3000 A02 5294
METAR KTYQ 251056Z AUTO 34007KT 4SM BR SCT004 BKN010 BKN016 09/09 A2996 A02 5293
METAR KTYQ 250956Z AUTO 34008KT 5SM BR BKN007 BKN015 OVC022 09/09 A2995 A02 5292
METAR KTYQ 250856Z AUTO 33006KT 5SM BR SCT036 09/09 A2994 A02 5291
METAR KTYQ 250756Z AUTO 33005KT 5SM BR BKN055 09/09 A2993 A02 5290
METAR KTYQ 250656Z AUTO 34005KT 7SM SCT055 BKN100 10/09 A2994 A02 5289
METAR KTYQ 250556Z AUTO 35005KT 7SM OVC065 11/10 A2996 A02 5288
METAR KTYQ 250456Z AUTO 33005KT 10SM OVC065 11/11 A2996 A02 5287
METAR KTYQ 250356Z AUTO 33007KT 10SM OVC065 11/11 A2996 A02 5286
METAR KTYQ 250256Z AUTO 35005KT 10SM OVC065 11/11 A2996 A02 5285
METAR KTYQ 250156Z AUTO 34005KT 10SM SCT023 SCT034 OVC065 11/11 A2996 A02 5284
METAR KTYQ 250056Z AUTO 36006KT 10SM SCT025 OVC033 11/11 A2995 A02 5283
METAR KTYQ 242356Z AUTO 01007KT 10SM SCT009 BKN014 OVC019 12/11 A2995 A02 5282
METAR KTYQ 242256Z AUTO 02008KT 10SM SCT011 BKN021 OVC027 12/11 A2994 A02 5281
METAR KTYQ 242156Z AUTO 36008KT 10SM BKN017 OVC022 12/12 A2994 A02 5280
METAR KTYQ 242056Z AUTO 36005KT 10SM SCT007 BKN012 OVC025 12/12 A2994 A02 5279
METAR KTYQ 241956Z AUTO 04004KT 4SM -RA BKN005 BKN011 OVC027 12/12 A2995 A02 P0001 5278
METAR KTYQ 241856Z AUTO 06004KT 7SM BR SCT006 BKN017 OVC025 12/12 A2996 A02 5277
METAR KTYQ 241756Z AUTO 04006KT 4SM BR BKN006 OVC009 12/12 A2996 A02 5276
METAR KTYQ 241656Z AUTO 07003KT 7SM -DZ BKN006 OVC012 12/11 A2998 A02 5275
METAR KTYQ 241556Z AUTO 06004KT 4SM DZ BKN006 OVC010 11/11 A2999 A02 P0001 5274
METAR KTYQ 241456Z AUTO 07004KT 2SM -RA OVC007 11/11 A2999 A02 5273
METAR KTYQ 241356Z AUTO 07005KT 10SM BKN007 OVC020 11/11 A2999 A02 5272
METAR KTYQ 241256Z AUTO 08007KT 10SM DZ OVC009 10/09 A3000 A02 5271
METAR KTYQ 241156Z AUTO 05005KT 10SM OVC013 09/09 A3000 A02 5270
METAR KTYQ 241056Z AUTO 05005KT 10SM OVC015 09/09 A2999 A02 5269
METAR KTYQ 240956Z AUTO 06005KT 10SM OVC030 10/09 A2999 A02 5268
METAR KTYQ 240856Z AUTO 08006KT 10SM OVC028 10/09 A3000 A02 5267
METAR KTYQ 240756Z AUTO 09006KT 10SM BKN016 BKN021 OVC037 10/09 A3000 A02 5266
METAR KTYQ 240656Z AUTO 08004KT 10SM OVC030 10/09 A3002 A02 5265
METAR KTYQ 240556Z AUTO 10007KT 10SM SCT014 BKN035 OVC041 11/09 A3003 A02 5264
METAR KTYQ 240456Z AUTO 10008KT 10SM OVC016 11/09 A3004 A02 5263
METAR KTYQ 240356Z AUTO 11007KT 10SM BKN018 OVC035 11/09 A3006 A02 5262
METAR KTYQ 240256Z AUTO 10008KT 10SM BKN018 OVC035 11/10 A3006 A02 5261
METAR KTYQ 240156Z AUTO 10010KT 10SM BKN014 OVC019 11/11 A3007 A02 5260
METAR KTYQ 240056Z AUTO 11011KT 4SM BR BKN014 OVC021 12/11 A3006 A02 5259
METAR KTYQ 232356Z AUTO 10012G15KT 2 1/2SM RA SCT007 BKN013 OVC019 12/12 A3006 A02 5258
METAR KTYQ 232256Z AUTO 10008KT 2 1/2SM DZ BKN009 OVC015 12/12 A3006 A02 P0001 5257
METAR KTYQ 232156Z AUTO 10011KT 10SM OVC015 12/12 A3007 A02 5256
METAR KTYQ 232056Z AUTO 10010G14KT 7SM DZ BKN012 OVC016 12/12 A3008 A02 P0002 5255
METAR KTYQ 231956Z AUTO 10009KT 7SM -RA SCT008 BKN014 OVC022 12/12 A3010 A02 P0003 5254
METAR KTYQ 231856Z AUTO 09009KT 5SM -RA SCT010 BKN014 OVC025 11/11 A3011 A02 P0008 5253
METAR KTYQ 231756Z AUTO 10007KT 10SM -RA SCT014 OVC023 12/11 A3012 A02 P0004 5252
METAR KTYQ 231656Z AUTO 12010KT 10SM -RA OVC023 13/09 A3012 A02 5251
METAR KTYQ 231556Z AUTO 12007KT 10SM -RA OVC090 13/04 A3012 A02 5250
METAR KTYQ 231456Z AUTO 09008KT 10SM SCT100 SCT120 12/03 A3012 A02 5249
METAR KTYQ 231356Z AUTO 08008KT 10SM BKN100 09/02 A3012 A02 5248
METAR KTYQ 231256Z AUTO 08006KT 10SM SCT110 08/00 A3013 A02 5247
METAR KTYQ 231156Z AUTO 07009KT 10SM SCT120 07/M01 A3013 A02 5246
METAR KTYQ 231056Z AUTO 07006KT 10SM CLR 07/M01 A3012 A02 5245
METAR KTYQ 230956Z AUTO 07007KT 10SM CLR 07/M02 A3011 A02 5244
METAR KTYQ 230856Z AUTO 06007KT 10SM CLR 07/M02 A3011 A02 5243
METAR KTYQ 230756Z AUTO 06007KT 10SM CLR 07/M02 A3012 A02 5242
METAR KTYQ 230656Z AUTO 07008KT 10SM CLR 07/M02 A3014 A02 5241
METAR KTYQ 230556Z AUTO 06008KT 10SM CLR 08/M03 A3016 A02 5240
METAR KTYQ 230456Z AUTO 06013G17KT 10SM CLR 09/M02 A3016 A02 5239
METAR KTYQ 230356Z AUTO 07008KT 10SM CLR 10/M01 A3018 A02 5238
METAR KTYQ 230256Z AUTO 06011G17KT 10SM CLR 12/M01 A3018 A02 5237
METAR KTYQ 230156Z AUTO 06008KT 10SM CLR 13/M01 A3018 A02 5236
METAR KTYQ 230056Z AUTO 06009KT 10SM CLR 13/M01 A3018 A02 5235
METAR KTYQ 222356Z AUTO 06008KT 10SM CLR 15/00 A3018 A02 5234
METAR KTYQ 222256Z AUTO 07009G15KT 10SM CLR 16/01 A3018 A02 5233
METAR KTYQ 222156Z AUTO 06011G17KT 10SM CLR 17/M01 A3018 A02 5232
METAR KTYQ 222056Z AUTO 09012KT 10SM CLR 18/M01 A3021 A02 5231
METAR KTYQ 221956Z AUTO 08013G18KT 10SM CLR 18/M01 A3022 A02 5230
METAR KTYQ 221856Z AUTO 06012G15KT 10SM CLR 17/M02 A3024 A02 5229
METAR KTYQ 221756Z AUTO 08012G17KT 10SM CLR 16/M02 A3026 A02 5228
METAR KTYQ 221656Z AUTO 09014KT 10SM CLR 14/M02 A3028 A02 5227
METAR KTYQ 221556Z AUTO 06009KT 10SM CLR 13/M01 A3028 A02 5226
METAR KTYQ 221456Z AUTO 08009KT 10SM CLR 11/M02 A3030 A02 5225
METAR KTYQ 221356Z AUTO 08008KT 10SM CLR 09/M03 A3031 A02 5224
METAR KTYQ 221256Z AUTO 07008KT 10SM CLR 08/M04 A3031 A02 5223
METAR KTYQ 221156Z AUTO 06007KT 10SM CLR 06/M03 A3031 A02 5222
METAR KTYQ 221056Z AUTO 05004KT 10SM CLR 06/M03 A3030 A02 5221
METAR KTYQ 220956Z AUTO 06005KT 10SM SCT120 07/M03 A3030 A02 5220
METAR KTYQ 220856Z AUTO 09004KT 10SM OVC120 07/M03 A3031 A02 5219
METAR KTYQ 220756Z AUTO 09006KT 10SM BKN120 07/M03 A3028 A02 5218
METAR KTYQ 220656Z AUTO 09007KT 10SM CLR 08/M02 A3030 A02 5217
METAR KTYQ 220556Z AUTO 07005KT 10SM CLR 08/M02 A3033 A02 5216
METAR KTYQ 220456Z AUTO 09007KT 10SM CLR 08/M02 A3033 A02 5215
METAR KTYQ 220356Z AUTO 08007KT 10SM CLR 09/M03 A3034 A02 5214
METAR KTYQ 220256Z AUTO 06007KT 10SM SCT120 10/M03 A3034 A02 5213
METAR KTYQ 220156Z AUTO 10008KT 10SM CLR 11/M03 A3034 A02 5212
METAR KTYQ 220056Z AUTO 07008KT 10SM CLR 11/M03 A3034 A02 5211
METAR KTYQ 212356Z AUTO 06008KT 10SM CLR 12/M05 A3032 A02 5210
METAR KTYQ 212256Z AUTO 06010KT 10SM CLR 13/M05 A3032 A02 5209
METAR KTYQ 212156Z AUTO 07005KT 10SM CLR 14/M05 A3033 A02 5208
METAR KTYQ 212056Z AUTO 07008KT 10SM CLR 14/M07 A3034 A02 5207
METAR KTYQ 211956Z AUTO 04006KT 10SM CLR 14/M03 A3036 A02 5206
METAR KTYQ 211856Z AUTO 07006KT 10SM CLR 14/M04 A3038 A02 5205
METAR KTYQ 211756Z AUTO 07006KT 10SM CLR 14/M03 A3040 A02 5204
METAR KTYQ 211656Z AUTO 13008KT 10SM CLR 12/M03 A3043 A02 5203
METAR KTYQ 211556Z AUTO 13008KT 10SM CLR 12/M03 A3044 A02 5202
METAR KTYQ 211456Z AUTO 11008KT 10SM CLR 10/M03 A3044 A02 5201
METAR KTYQ 211356Z AUTO 11006KT 10SM CLR 08/M02 A3044 A02 5200
METAR KTYQ 211256Z AUTO 12006KT 10SM CLR 07/M02 A3045 A02 5199
METAR KTYQ 211156Z AUTO 09004KT 10SM CLR 04/M02 A3044 A02 5198
METAR KTYQ 211056Z AUTO 11005KT 10SM CLR 04/M02 A3042 A02 5197
METAR KTYQ 210956Z AUTO 10004KT 10SM CLR 03/M02 A3041 A02 5196
METAR KTYQ 210856Z AUTO 11003KT 10SM CLR 03/M03 A3041 A02 5195
METAR KTYQ 210756Z AUTO 10004KT 10SM CLR 02/M02 A3041 A02 5194
METAR KTYQ 210656Z AUTO 00000KT 10SM CLR 01/M01 A3042 A02 5193
METAR KTYQ 210556Z AUTO 00000KT 10SM CLR 02/M01 A3043 A02 5192
METAR KTYQ 210456Z AUTO 00000KT 10SM CLR 02/M01 A3042 A02 5191
METAR KTYQ 210356Z AUTO 00000KT 10SM CLR 03/00 A3042 A02 5190
METAR KTYQ 210256Z AUTO 00000KT 10SM CLR 06/M02 A3042 A02 5189
METAR KTYQ 210156Z AUTO 09004KT 10SM CLR 07/M01 A3041 A02 5188
METAR KTYQ 210056Z AUTO 08004KT 10SM CLR 11/M05 A3041 A02 5187
METAR KTYQ 202356Z AUTO 06004KT 10SM CLR 13/M03 A3041 A02 5186
METAR KTYQ 202256Z AUTO 04007KT 10SM CLR 13/M04 A3042 A02 5185
METAR KTYQ 202156Z AUTO 02005KT 10SM CLR 14/M05 A3043 A02 5184
METAR KTYQ 202056Z AUTO 10004KT 10SM CLR 14/M05 A3043 A02 5183
METAR KTYQ 201956Z AUTO 07008KT 030V090 10SM CLR 14/M04 A3045 A02 5182
METAR KTYQ 201856Z AUTO 08008KT 10SM CLR 13/M04 A3048 A02 5181
METAR KTYQ 201756Z AUTO 01009KT 10SM CLR 12/M06 A3048 A02 5180
METAR KTYQ 201656Z AUTO 06007KT 040V100 10SM CLR 11/M05 A3049 A02 5179
METAR KTYQ 201556Z AUTO 04003KT 10SM CLR 09/M05 A3051 A02 5178